Canaan, New Hampshire
Current Conditions -  °F | °C
As of 6:53 AM on Friday 24 Oct 2014 (Local Time) from KLEB Reporting Station
Overcast Overcast  
Wind Chill: 43°   Ceiling: 500
Heat Index: 46°   Visibility: 10mi
Dew Point: 42°   Wind: 6mph
Humidity: 86%   Direction: 340°NNW
Pressure: 29.76"   Gusts: NA
Location:  43.65°N, 72.01°W
Report Text: KLEB 241053Z 34005KT 10SM OVC005 08/06 A2976 RMK AO2 RAB12E27 SLP078 P0000 T00780056
Loading
Personal Weather Stations






























Interactive Weather Map
Tropical Storm Tracking
New forecast layout! Learn more

10-Day Weather Forecast

Advertisements
Track Severe Weather on mobile